createdAt,value
2018-05-24T10:24:49.395Z,20.10
2018-05-24T10:27:23.614Z,20.10
2018-05-24T10:29:58.026Z,20.20
2018-05-24T10:32:32.317Z,20.40
2018-05-24T10:35:06.671Z,20.50
2018-05-24T10:37:40.778Z,20.60
2018-05-24T10:40:14.994Z,20.60
2018-05-24T10:42:49.152Z,20.60
2018-05-24T10:45:23.333Z,20.60
2018-05-24T10:47:58.475Z,20.90
2018-05-24T10:50:32.767Z,20.80
2018-05-24T10:53:07.098Z,20.90
2018-05-24T10:55:41.412Z,21.00
2018-05-24T10:58:15.596Z,21.10
2018-05-24T11:00:49.910Z,20.80
2018-05-24T11:03:24.351Z,20.80
2018-05-24T11:05:59.366Z,20.80
2018-05-24T11:08:33.538Z,20.90
2018-05-24T11:11:07.912Z,20.80
2018-05-24T11:13:42.240Z,21.10
2018-05-24T11:16:16.561Z,21.10
2018-05-24T11:18:50.821Z,21.20
2018-05-24T11:21:25.813Z,21.40
2018-05-24T11:24:00.085Z,21.40
2018-05-24T11:26:34.341Z,21.40
2018-05-24T11:29:08.632Z,21.40
2018-05-24T11:31:43.011Z,21.60
2018-05-24T11:34:17.216Z,21.60
2018-05-24T11:36:51.514Z,21.50
2018-05-24T11:39:25.933Z,21.40
2018-05-24T11:42:00.231Z,21.50
2018-05-24T11:44:34.457Z,21.50
2018-05-24T11:47:08.619Z,21.80
2018-05-24T11:49:43.543Z,22.10
2018-05-24T11:52:17.866Z,22.10
2018-05-24T11:54:51.985Z,22.40
2018-05-24T11:57:26.317Z,22.50
2018-05-24T12:00:00.713Z,22.60
2018-05-24T12:02:35.750Z,22.60
2018-05-24T12:05:09.870Z,22.60
2018-05-24T12:07:44.085Z,22.50
2018-05-24T12:10:18.227Z,22.50
2018-05-24T12:12:56.062Z,22.40
2018-05-24T12:15:30.410Z,22.30
2018-05-24T12:18:04.722Z,22.30
2018-05-24T12:20:39.231Z,22.40
2018-05-24T12:23:13.527Z,22.60
2018-05-24T12:25:47.745Z,22.80
2018-05-24T12:28:22.798Z,23.00
2018-05-24T12:30:56.915Z,23.00
2018-05-24T12:33:31.322Z,23.30
2018-05-24T12:36:05.638Z,23.50
2018-05-24T12:38:39.867Z,23.60
2018-05-24T12:41:14.054Z,23.80
2018-05-24T12:43:49.114Z,23.90
2018-05-24T12:46:23.381Z,24.00
2018-05-24T12:48:57.805Z,23.60
2018-05-24T12:51:31.938Z,23.20
2018-05-24T12:54:06.274Z,22.70
2018-05-24T12:56:40.562Z,22.60
2018-05-24T12:59:15.007Z,22.60
2018-05-24T13:01:49.116Z,22.80
2018-05-24T13:04:23.341Z,22.90
2018-05-24T13:06:57.642Z,23.20
2018-05-24T13:09:32.885Z,23.30
2018-05-24T13:12:07.034Z,23.30
2018-05-24T13:14:46.389Z,23.00
2018-05-24T13:17:20.554Z,22.80
2018-05-24T13:19:54.862Z,22.80
2018-05-24T13:22:29.827Z,23.50
2018-05-24T13:25:04.115Z,23.50
2018-05-24T13:27:38.225Z,23.90
2018-05-24T13:30:13.168Z,23.40
2018-05-24T13:32:47.443Z,23.40
2018-05-24T13:35:21.586Z,22.90
2018-05-24T13:37:55.894Z,22.70
2018-05-24T13:40:31.283Z,22.30
2018-05-24T13:43:05.463Z,22.30
2018-05-24T13:45:39.763Z,22.30
2018-05-24T13:48:15.430Z,22.60
2018-05-24T13:50:50.596Z,22.60
2018-05-24T13:53:24.979Z,22.90
2018-05-24T13:55:59.763Z,22.90
2018-05-24T13:58:34.732Z,22.40
2018-05-24T14:01:10.165Z,22.60
2018-05-24T14:03:45.093Z,22.80
2018-05-24T14:06:19.401Z,22.80
2018-05-24T14:08:54.340Z,22.80
2018-05-24T14:11:29.359Z,22.80
2018-05-24T14:14:03.559Z,22.80
2018-05-24T14:16:37.897Z,22.60
2018-05-24T14:19:12.866Z,22.30
2018-05-24T14:21:47.561Z,22.30
2018-05-24T14:24:21.673Z,22.30
2018-05-24T14:26:55.771Z,22.40
2018-05-24T14:29:29.901Z,22.60
2018-05-24T14:32:04.216Z,22.50
2018-05-24T14:34:38.497Z,22.50
2018-05-24T14:37:12.646Z,22.50
2018-05-24T14:39:46.835Z,22.60
2018-05-24T14:42:21.054Z,22.30
2018-05-24T14:44:55.246Z,22.30
2018-05-24T14:47:29.531Z,22.00
2018-05-24T14:50:03.830Z,21.70
2018-05-24T14:52:39.168Z,21.60
2018-05-24T14:55:13.330Z,21.60
2018-05-24T14:57:48.624Z,21.60
2018-05-24T15:00:22.850Z,21.60
2018-05-24T15:02:58.691Z,21.90
2018-05-24T15:05:34.110Z,21.90
2018-05-24T15:08:09.047Z,21.70
2018-05-24T15:10:43.276Z,21.70
2018-05-24T15:13:31.538Z,22.00
2018-05-24T15:16:05.854Z,22.10
2018-05-24T15:23:51.923Z,21.50
2018-05-24T15:26:27.327Z,21.00
2018-05-24T15:29:01.847Z,21.00
2018-05-24T15:31:36.783Z,21.00
2018-05-24T15:36:46.847Z,20.90
2018-05-24T15:39:21.106Z,20.80
2018-05-24T15:41:55.523Z,20.70
2018-05-24T15:44:30.708Z,20.70
2018-05-24T15:47:04.957Z,20.60
2018-05-24T15:49:39.226Z,20.50
2018-05-24T15:52:13.384Z,20.50
2018-05-24T16:33:46.149Z,20.20
2018-05-24T16:36:20.326Z,20.20
2018-05-24T16:38:54.600Z,20.30
2018-05-24T16:41:28.763Z,20.40
2018-05-24T16:44:02.964Z,20.60
2018-05-24T16:46:37.332Z,20.70
2018-05-24T16:49:11.575Z,20.90
2018-05-24T16:51:45.889Z,21.00
2018-05-24T16:54:21.002Z,21.30
2018-05-24T16:56:55.310Z,21.30
2018-05-24T16:59:29.693Z,21.30
2018-05-24T17:02:04.276Z,21.20
2018-05-24T17:04:39.208Z,21.20
2018-05-24T17:07:13.707Z,21.20
2018-05-24T17:09:47.934Z,21.10
2018-05-24T17:12:22.253Z,21.00
2018-05-24T17:14:56.561Z,20.90
2018-05-24T17:17:32.901Z,20.70
2018-05-24T17:20:07.274Z,20.80
2018-05-24T17:22:41.449Z,20.70
2018-05-24T17:25:15.835Z,20.70
2018-05-24T17:27:50.015Z,20.60
2018-05-24T17:30:24.343Z,20.60
2018-05-24T17:32:59.711Z,20.50
2018-05-24T17:35:34.014Z,20.50
2018-05-24T17:38:08.343Z,20.40
2018-05-24T17:40:43.680Z,20.30
2018-05-24T17:43:18.657Z,20.20
2018-05-24T17:45:54.262Z,20.20
2018-05-24T17:48:28.345Z,20.10
2018-05-24T17:51:02.787Z,20.10
2018-05-24T17:53:36.871Z,20.00
2018-05-24T17:56:11.051Z,20.00
2018-05-24T17:58:46.030Z,20.00
2018-05-24T18:01:20.686Z,19.90
2018-05-24T18:03:54.855Z,19.90
2018-05-24T18:06:29.267Z,19.80
2018-05-24T18:09:03.628Z,19.70
2018-05-24T18:11:37.843Z,19.70
2018-05-24T18:14:13.422Z,19.70
2018-05-24T18:16:47.606Z,19.70
2018-05-24T18:19:21.858Z,19.70
2018-05-24T18:21:56.431Z,19.60
2018-05-24T18:24:30.610Z,19.50
